Time;durP1;ratioP1;P1;durP2;ratioP2;P2;SDS_P1;SDS_P2;PMS_P1;PMS_P2;Temp;Humidity;BMP_temperature;BMP_pressure;BME280_temperature;BME280_humidity;BME280_pressure;Samples;Min_cycle;Max_cycle;Signal;HPM_P1;HPM_P2
2022/03/28 00:01:45;;;;;;;17.60;11.90;;;5.70;97.70;;;;;;5089179;28;20228;-78
2022/03/28 00:04:12;;;;;;;18.40;11.33;;;5.70;97.90;;;;;;5088201;28;20259;-78
2022/03/28 00:06:39;;;;;;;17.87;12.30;;;5.70;98.20;;;;;;5070885;28;20226;-78
2022/03/28 00:09:06;;;;;;;17.27;11.30;;;5.70;98.10;;;;;;5066183;28;20604;-79
2022/03/28 00:11:32;;;;;;;18.80;11.87;;;5.60;98.20;;;;;;5087446;28;20258;-78
2022/03/28 00:14:01;;;;;;;17.30;12.17;;;5.60;98.50;;;;;;5088324;28;20227;-78
2022/03/28 00:16:28;;;;;;;16.33;11.63;;;5.70;98.50;;;;;;5087268;28;20268;-79
2022/03/28 00:18:54;;;;;;;17.27;11.90;;;5.70;98.40;;;;;;5087929;28;20736;-78
2022/03/28 00:21:21;;;;;;;16.23;11.53;;;5.70;98.40;;;;;;5084805;28;20235;-78
2022/03/28 00:23:48;;;;;;;16.80;11.37;;;5.70;98.50;;;;;;5067802;28;20231;-78
2022/03/28 00:26:15;;;;;;;16.00;10.83;;;5.70;98.40;;;;;;5085948;28;20246;-77
2022/03/28 00:28:41;;;;;;;15.50;10.20;;;5.70;98.20;;;;;;5085776;28;20237;-77
2022/03/28 00:31:09;;;;;;;18.00;11.87;;;5.70;98.50;;;;;;5085928;28;20225;-77
2022/03/28 00:33:36;;;;;;;18.17;11.30;;;5.70;98.50;;;;;;5086087;28;20240;-77
2022/03/28 00:36:04;;;;;;;18.17;11.13;;;5.60;98.30;;;;;;5086303;28;20231;-77
2022/03/28 00:38:31;;;;;;;18.23;11.37;;;5.60;98.50;;;;;;5085874;28;20236;-78
2022/03/28 00:40:58;;;;;;;18.60;12.33;;;5.60;98.50;;;;;;5084307;28;20224;-78
2022/03/28 00:43:25;;;;;;;17.03;11.87;;;5.60;98.70;;;;;;5085841;28;20228;-77
2022/03/28 00:45:52;;;;;;;21.20;12.67;;;5.60;98.70;;;;;;5086644;28;20235;-77
2022/03/28 00:48:20;;;;;;;21.43;13.00;;;5.70;98.90;;;;;;5086409;28;20647;-78
2022/03/28 00:50:47;;;;;;;19.57;12.50;;;5.70;99.00;;;;;;5069525;28;20237;-78
2022/03/28 00:53:15;;;;;;;19.13;12.83;;;5.70;98.90;;;;;;5086779;28;20225;-78
2022/03/28 00:55:42;;;;;;;19.30;13.23;;;5.80;98.80;;;;;;5087313;28;20230;-78
2022/03/28 00:58:09;;;;;;;19.30;12.93;;;5.80;98.80;;;;;;5086380;28;20304;-78
2022/03/28 01:00:36;;;;;;;20.63;12.90;;;5.80;98.80;;;;;;5068819;28;20225;-78
2022/03/28 01:03:03;;;;;;;20.97;13.57;;;5.80;98.70;;;;;;5087027;28;20235;-78
2022/03/28 01:05:31;;;;;;;19.57;12.57;;;5.80;98.80;;;;;;5087990;28;20233;-78
2022/03/28 01:08:00;;;;;;;18.90;12.80;;;5.80;98.70;;;;;;5088275;28;20223;-78
2022/03/28 01:10:26;;;;;;;17.43;11.13;;;5.80;98.80;;;;;;5088379;28;20698;-79
2022/03/28 01:12:54;;;;;;;18.60;11.73;;;5.80;98.90;;;;;;5087511;28;20256;-78
2022/03/28 01:15:21;;;;;;;17.53;11.90;;;5.80;99.10;;;;;;5087256;28;20741;-78
2022/03/28 01:20:35;;;;;;;18.43;11.87;;;5.80;99.00;;;;;;5085996;28;20244;-78
2022/03/28 01:23:04;;;;;;;19.03;12.40;;;5.80;99.10;;;;;;5086711;28;20282;-78
2022/03/28 01:25:31;;;;;;;19.70;12.57;;;5.80;98.90;;;;;;5087189;28;20225;-78
2022/03/28 01:27:59;;;;;;;21.70;12.67;;;5.80;99.00;;;;;;5065705;28;20247;-78
2022/03/28 01:30:28;;;;;;;18.73;11.63;;;5.70;98.90;;;;;;5067962;28;20592;-78
2022/03/28 01:32:56;;;;;;;21.77;13.27;;;5.70;98.80;;;;;;5086431;28;20263;-78
2022/03/28 01:35:27;;;;;;;21.17;13.00;;;5.70;99.10;;;;;;5086979;28;20240;-78
2022/03/28 01:37:54;;;;;;;20.67;13.57;;;5.80;99.40;;;;;;5086573;28;20248;-78
2022/03/28 01:40:23;;;;;;;20.07;14.00;;;5.70;99.00;;;;;;5085951;28;20339;-78
2022/03/28 01:42:50;;;;;;;20.93;14.07;;;5.70;99.10;;;;;;5086066;28;20230;-78
2022/03/28 01:45:18;;;;;;;19.70;12.97;;;5.70;99.10;;;;;;5086249;28;20293;-78
2022/03/28 01:47:46;;;;;;;20.20;13.03;;;5.70;99.20;;;;;;5086912;28;20243;-78
2022/03/28 01:50:13;;;;;;;21.13;13.93;;;5.60;99.10;;;;;;5067805;28;20232;-78
2022/03/28 01:52:40;;;;;;;21.20;12.07;;;5.60;99.20;;;;;;5068188;28;20245;-76
2022/03/28 01:55:09;;;;;;;19.90;12.93;;;5.60;99.30;;;;;;5068244;28;20701;-79
2022/03/28 01:57:37;;;;;;;21.13;12.13;;;5.60;99.20;;;;;;5068908;28;20288;-78
2022/03/28 02:00:06;;;;;;;19.33;12.23;;;5.50;99.20;;;;;;5083667;28;20229;-79
2022/03/28 02:02:36;;;;;;;17.57;11.10;;;5.50;99.00;;;;;;5086045;28;20732;-79
2022/03/28 02:05:03;;;;;;;18.97;10.63;;;5.50;99.00;;;;;;5090412;28;20225;-80
2022/03/28 02:07:30;;;;;;;16.70;10.87;;;5.50;99.00;;;;;;5091353;28;20657;-79
2022/03/28 02:09:56;;;;;;;20.10;11.90;;;5.50;99.10;;;;;;5073985;28;20229;-79
2022/03/28 02:12:23;;;;;;;18.63;12.03;;;5.40;99.20;;;;;;5092221;28;20236;-79
2022/03/28 02:14:51;;;;;;;18.17;11.97;;;5.40;99.20;;;;;;5076223;28;20228;-80
2022/03/28 02:17:18;;;;;;;18.07;10.90;;;5.40;99.60;;;;;;5093432;28;20243;-80
2022/03/28 02:19:45;;;;;;;15.70;11.43;;;5.40;99.50;;;;;;5091166;28;20228;-79
2022/03/28 02:22:12;;;;;;;21.20;12.50;;;5.40;99.40;;;;;;5091790;28;20225;-79
2022/03/28 02:24:39;;;;;;;18.73;12.57;;;5.40;99.40;;;;;;5073352;28;20224;-80
2022/03/28 02:27:06;;;;;;;20.40;13.20;;;5.40;99.60;;;;;;5093779;28;20253;-81
2022/03/28 02:29:33;;;;;;;20.60;13.03;;;5.40;99.50;;;;;;5092839;28;20223;-81
2022/03/28 02:32:02;;;;;;;21.20;13.50;;;5.40;99.60;;;;;;5077297;28;20217;-81
2022/03/28 02:34:29;;;;;;;23.87;15.57;;;5.40;99.70;;;;;;5074523;28;20339;-80
2022/03/28 02:36:56;;;;;;;27.30;16.27;;;5.50;99.70;;;;;;5094590;28;20286;-81
2022/03/28 02:39:23;;;;;;;26.80;15.80;;;5.40;99.70;;;;;;5074832;28;20261;-81
2022/03/28 02:41:49;;;;;;;23.90;16.07;;;5.50;99.90;;;;;;5093954;28;20305;-81
2022/03/28 02:44:17;;;;;;;23.60;15.33;;;5.50;99.60;;;;;;5073226;28;20247;-81
2022/03/28 02:46:44;;;;;;;23.97;15.93;;;5.50;99.90;;;;;;5075401;28;20999;-81
2022/03/28 02:49:12;;;;;;;23.77;15.33;;;5.50;99.80;;;;;;5072958;28;20230;-81
2022/03/28 02:51:39;;;;;;;22.13;14.00;;;5.50;99.70;;;;;;5092887;28;20239;-81
2022/03/28 02:54:07;;;;;;;23.97;15.50;;;5.50;99.50;;;;;;5074307;28;20601;-81
2022/03/28 02:56:34;;;;;;;20.23;14.40;;;5.50;99.60;;;;;;5075175;28;20441;-81
2022/03/28 02:59:01;;;;;;;22.50;15.77;;;5.40;99.60;;;;;;5092870;28;20225;-80
2022/03/28 03:01:27;;;;;;;22.60;16.37;;;5.40;99.70;;;;;;5093481;28;25018;-81
2022/03/28 03:03:54;;;;;;;22.50;15.37;;;5.40;99.80;;;;;;5092021;28;20670;-81
2022/03/28 03:06:22;;;;;;;21.47;15.53;;;5.40;99.80;;;;;;5091406;28;20248;-81
2022/03/28 03:08:50;;;;;;;24.03;15.97;;;5.40;99.60;;;;;;5090040;28;20233;-80
2022/03/28 03:11:17;;;;;;;24.53;16.47;;;5.40;99.50;;;;;;5088398;28;20227;-81
2022/03/28 03:13:44;;;;;;;22.67;16.07;;;5.40;99.60;;;;;;5089575;28;20304;-81
2022/03/28 03:16:10;;;;;;;23.57;16.27;;;5.40;99.40;;;;;;5092285;28;20213;-81
2022/03/28 03:18:37;;;;;;;23.77;15.73;;;5.40;99.20;;;;;;5074892;28;20223;-81
2022/03/28 03:21:05;;;;;;;26.37;17.23;;;5.40;99.50;;;;;;5074849;28;20229;-80
2022/03/28 03:23:33;;;;;;;25.13;17.17;;;5.30;99.50;;;;;;5091814;28;20240;-79
2022/03/28 03:26:00;;;;;;;24.43;16.87;;;5.30;99.50;;;;;;5067382;28;20224;-79
2022/03/28 03:28:27;;;;;;;23.87;15.57;;;5.30;99.50;;;;;;5074318;28;20224;-80
2022/03/28 03:30:54;;;;;;;23.50;15.37;;;5.30;99.40;;;;;;5092014;28;20232;-79
2022/03/28 03:33:20;;;;;;;19.90;13.90;;;5.30;99.60;;;;;;5091179;28;20263;-79
2022/03/28 03:35:47;;;;;;;19.40;12.20;;;5.20;99.60;;;;;;5090604;28;20229;-80
2022/03/28 03:38:14;;;;;;;15.83;10.20;;;5.20;99.70;;;;;;5091359;28;20310;-80
2022/03/28 03:40:42;;;;;;;12.67;9.10;;;5.20;99.70;;;;;;5093128;28;20235;-80
2022/03/28 03:43:08;;;;;;;12.40;8.80;;;5.20;99.70;;;;;;5075337;28;20635;-79
2022/03/28 03:45:35;;;;;;;13.83;8.10;;;5.20;99.80;;;;;;5094240;28;20228;-79
2022/03/28 03:48:02;;;;;;;10.93;7.90;;;5.20;99.90;;;;;;5093212;28;20226;-79
2022/03/28 03:50:28;;;;;;;10.13;6.80;;;5.20;99.80;;;;;;5091437;28;20271;-79
2022/03/28 03:52:55;;;;;;;9.93;6.50;;;5.10;99.90;;;;;;5090963;28;20271;-79
2022/03/28 03:55:22;;;;;;;9.83;5.87;;;5.10;99.90;;;;;;5091204;28;20680;-79
2022/03/28 03:57:50;;;;;;;7.80;5.57;;;5.10;99.90;;;;;;5090519;28;20238;-79
2022/03/28 04:00:17;;;;;;;7.53;4.90;;;5.10;99.90;;;;;;5090488;28;20251;-79
2022/03/28 04:02:45;;;;;;;7.77;5.13;;;5.10;99.90;;;;;;5088742;28;20229;-78
2022/03/28 04:05:12;;;;;;;9.13;4.97;;;5.10;99.90;;;;;;5087487;28;20227;-78
2022/03/28 04:07:39;;;;;;;6.40;4.60;;;5.10;99.90;;;;;;5070784;28;20224;-79
2022/03/28 04:10:06;;;;;;;7.53;5.13;;;5.10;99.90;;;;;;5087204;28;20255;-79
2022/03/28 04:12:33;;;;;;;9.23;4.80;;;5.10;99.90;;;;;;5087522;28;20285;-79
2022/03/28 04:15:02;;;;;;;6.43;4.73;;;5.00;99.90;;;;;;5069802;28;20212;-80
2022/03/28 04:17:29;;;;;;;6.70;5.17;;;5.00;99.90;;;;;;5086339;28;20228;-80
2022/03/28 04:19:56;;;;;;;8.83;4.73;;;5.00;99.90;;;;;;5089395;28;20834;-80
2022/03/28 04:22:23;;;;;;;6.23;4.50;;;5.00;99.90;;;;;;5088878;28;20235;-81
2022/03/28 04:24:50;;;;;;;7.50;5.10;;;5.00;99.90;;;;;;5087258;28;20221;-80
2022/03/28 04:27:17;;;;;;;7.63;4.93;;;4.90;99.90;;;;;;5088481;28;20387;-79
2022/03/28 04:29:44;;;;;;;7.37;5.50;;;5.00;99.90;;;;;;5088753;28;20228;-78
2022/03/28 04:32:13;;;;;;;6.07;5.13;;;5.00;99.90;;;;;;5089594;28;20321;-79
2022/03/28 04:34:40;;;;;;;8.27;5.90;;;5.00;99.90;;;;;;5088722;28;20224;-80
2022/03/28 04:37:06;;;;;;;10.07;5.73;;;5.00;99.90;;;;;;5070590;28;20226;-79
2022/03/28 04:39:33;;;;;;;7.90;5.20;;;5.00;99.90;;;;;;5085363;28;20598;-76
2022/03/28 04:42:00;;;;;;;13.77;5.10;;;5.00;99.90;;;;;;5086168;28;20238;-76
2022/03/28 04:44:27;;;;;;;11.67;5.00;;;5.00;99.90;;;;;;5082069;28;20227;-76
2022/03/28 04:46:53;;;;;;;9.47;5.13;;;5.00;99.90;;;;;;5085432;28;20231;-76
2022/03/28 04:49:21;;;;;;;8.83;4.90;;;5.00;99.90;;;;;;5087426;28;20229;-79
2022/03/28 04:51:48;;;;;;;9.57;4.80;;;4.90;99.90;;;;;;5077011;28;20221;-79
2022/03/28 04:54:15;;;;;;;7.33;4.37;;;4.90;99.90;;;;;;5072583;28;20760;-79
2022/03/28 04:56:43;;;;;;;8.17;4.17;;;4.90;99.90;;;;;;5087149;28;20836;-79
2022/03/28 04:59:10;;;;;;;14.03;5.00;;;5.00;99.90;;;;;;5083916;28;20818;-79
2022/03/28 05:01:37;;;;;;;7.37;4.70;;;5.00;99.90;;;;;;5087637;28;20238;-79
2022/03/28 05:04:04;;;;;;;10.27;4.97;;;5.00;99.90;;;;;;5089136;28;20892;-79
2022/03/28 05:06:32;;;;;;;8.23;5.57;;;5.10;99.90;;;;;;5085852;28;20296;-79
2022/03/28 05:08:59;;;;;;;7.27;5.43;;;5.10;99.90;;;;;;5088498;28;20310;-79
2022/03/28 05:11:25;;;;;;;14.37;5.63;;;5.10;99.90;;;;;;5082406;28;20242;-79
2022/03/28 05:13:53;;;;;;;10.03;5.67;;;5.10;99.90;;;;;;5085112;28;20229;-79
2022/03/28 05:16:19;;;;;;;7.67;5.07;;;5.10;99.90;;;;;;5086440;28;20233;-79
2022/03/28 05:18:46;;;;;;;6.77;5.10;;;5.10;99.90;;;;;;5086691;28;20249;-80
2022/03/28 05:21:13;;;;;;;7.23;4.93;;;5.10;99.90;;;;;;5082738;28;20242;-78
2022/03/28 05:23:41;;;;;;;7.80;4.80;;;5.10;99.90;;;;;;5084312;28;20597;-78
2022/03/28 05:26:07;;;;;;;7.03;4.87;;;5.10;99.90;;;;;;5085387;28;20217;-78
2022/03/28 05:28:34;;;;;;;6.30;3.90;;;5.10;99.90;;;;;;5084583;28;20303;-78
2022/03/28 05:31:01;;;;;;;5.00;3.23;;;5.10;99.90;;;;;;5084821;28;20221;-78
2022/03/28 05:33:28;;;;;;;3.40;2.63;;;5.10;99.90;;;;;;5083792;28;20224;-78
2022/03/28 05:35:55;;;;;;;3.20;2.40;;;5.10;99.90;;;;;;5085422;28;20317;-78
2022/03/28 05:38:22;;;;;;;2.60;2.40;;;5.10;99.90;;;;;;5091475;28;20324;-78
2022/03/28 05:40:50;;;;;;;4.40;2.70;;;5.10;99.90;;;;;;5076072;28;20236;-78
2022/03/28 05:43:17;;;;;;;5.33;2.83;;;5.00;99.90;;;;;;5076361;28;20231;-78
2022/03/28 05:45:44;;;;;;;6.17;3.33;;;5.00;99.90;;;;;;5092372;28;20220;-78
2022/03/28 05:48:10;;;;;;;4.77;3.17;;;5.00;99.90;;;;;;5091651;28;20243;-78
2022/03/28 05:50:37;;;;;;;3.67;2.50;;;5.00;99.90;;;;;;5092692;28;20244;-78
2022/03/28 05:53:04;;;;;;;3.20;2.00;;;4.90;99.90;;;;;;5079027;28;20243;-78
2022/03/28 05:55:31;;;;;;;3.83;2.00;;;4.90;99.90;;;;;;5092509;28;20228;-78
2022/03/28 05:58:00;;;;;;;2.30;1.80;;;4.90;99.90;;;;;;5067599;28;20312;-78
2022/03/28 06:00:27;;;;;;;2.83;1.70;;;4.90;99.90;;;;;;5073295;28;20315;-78
2022/03/28 06:02:55;;;;;;;1.47;1.17;;;4.90;99.90;;;;;;5092268;28;20576;-78
2022/03/28 06:05:22;;;;;;;2.13;1.60;;;4.90;99.90;;;;;;5091286;28;20227;-78
2022/03/28 06:07:49;;;;;;;3.90;2.53;;;4.90;99.90;;;;;;5092230;28;20262;-78
2022/03/28 06:10:16;;;;;;;2.87;2.57;;;4.90;99.90;;;;;;5091474;28;20281;-78
2022/03/28 06:12:43;;;;;;;3.70;2.67;;;4.90;99.90;;;;;;5092343;28;20299;-78
2022/03/28 06:15:12;;;;;;;3.33;2.33;;;4.90;99.90;;;;;;5090877;28;20252;-78
2022/03/28 06:17:39;;;;;;;4.67;2.50;;;5.00;99.90;;;;;;5089590;28;20231;-78
2022/03/28 06:20:07;;;;;;;4.23;2.77;;;4.90;99.90;;;;;;5091539;28;20314;-78
2022/03/28 06:22:34;;;;;;;5.50;2.53;;;5.00;99.90;;;;;;5091793;28;20312;-79
2022/03/28 06:25:02;;;;;;;2.90;2.07;;;5.00;99.90;;;;;;5092040;28;20224;-78
2022/03/28 06:27:28;;;;;;;4.20;2.50;;;5.00;99.90;;;;;;5092462;28;20241;-78
2022/03/28 06:29:55;;;;;;;3.20;2.50;;;5.00;99.90;;;;;;5091534;28;20234;-78
2022/03/28 06:32:23;;;;;;;4.30;2.50;;;5.10;99.90;;;;;;5091974;28;20730;-78
2022/03/28 06:34:52;;;;;;;6.33;3.77;;;5.10;99.90;;;;;;5091611;28;20236;-78
2022/03/28 06:37:22;;;;;;;5.43;4.20;;;5.10;99.90;;;;;;5091427;28;20217;-78
2022/03/28 06:39:49;;;;;;;5.20;4.17;;;5.10;99.90;;;;;;5092608;28;20232;-78
2022/03/28 06:42:16;;;;;;;8.70;5.00;;;5.10;99.90;;;;;;5092280;28;20306;-79
2022/03/28 06:44:43;;;;;;;7.70;5.30;;;5.20;99.90;;;;;;5092852;28;20232;-78
2022/03/28 06:47:10;;;;;;;7.60;5.00;;;5.20;99.90;;;;;;5091694;28;20775;-78
2022/03/28 06:49:38;;;;;;;6.37;4.73;;;5.20;99.90;;;;;;5067871;28;20235;-78
2022/03/28 06:52:06;;;;;;;8.43;5.30;;;5.20;99.90;;;;;;5089615;28;20702;-78
2022/03/28 06:54:33;;;;;;;6.37;4.80;;;5.20;99.90;;;;;;5088656;28;20319;-78
2022/03/28 06:57:00;;;;;;;10.97;7.03;;;5.30;99.90;;;;;;5085570;28;20234;-78
2022/03/28 06:59:29;;;;;;;8.97;5.10;;;5.30;99.90;;;;;;5084481;28;20245;-78
2022/03/28 07:01:56;;;;;;;6.70;4.53;;;5.30;99.90;;;;;;5088460;28;20228;-78
2022/03/28 07:04:23;;;;;;;6.80;4.13;;;5.30;99.90;;;;;;5088356;28;20562;-78
2022/03/28 07:06:52;;;;;;;7.67;4.80;;;5.30;99.90;;;;;;5088752;28;20324;-78
2022/03/28 07:09:18;;;;;;;7.37;4.10;;;5.40;99.90;;;;;;5088745;28;20220;-78
2022/03/28 07:11:45;;;;;;;4.87;3.83;;;5.40;99.90;;;;;;5088318;28;20247;-78
2022/03/28 07:14:12;;;;;;;5.63;4.00;;;5.40;99.90;;;;;;5087682;28;20787;-78
2022/03/28 07:16:39;;;;;;;5.47;4.17;;;5.50;99.90;;;;;;5089778;28;20561;-80
2022/03/28 07:19:06;;;;;;;5.63;4.40;;;5.40;99.80;;;;;;5087626;28;20229;-78
2022/03/28 07:21:33;;;;;;;6.97;5.27;;;5.50;99.70;;;;;;5089618;28;20743;-78
2022/03/28 07:24:01;;;;;;;5.60;4.80;;;5.50;99.60;;;;;;5088832;28;20226;-79
2022/03/28 07:26:28;;;;;;;6.33;4.73;;;5.60;99.60;;;;;;5065287;28;20313;-78
2022/03/28 07:28:58;;;;;;;7.83;5.17;;;5.60;99.60;;;;;;5088935;28;20251;-77
2022/03/28 07:31:25;;;;;;;7.07;5.23;;;5.70;99.70;;;;;;5070255;28;20263;-77
2022/03/28 07:33:51;;;;;;;5.90;4.80;;;5.70;99.60;;;;;;5088712;28;20224;-76
2022/03/28 07:36:19;;;;;;;5.60;4.67;;;5.80;99.70;;;;;;5088123;28;20732;-78
2022/03/28 07:38:46;;;;;;;5.30;4.40;;;5.80;99.60;;;;;;5089263;28;20435;-77
2022/03/28 07:41:14;;;;;;;5.93;4.17;;;5.90;99.60;;;;;;5088151;28;20587;-78
2022/03/28 07:43:41;;;;;;;5.47;4.60;;;6.00;99.40;;;;;;5065279;28;20250;-77
2022/03/28 07:46:10;;;;;;;5.60;4.20;;;6.00;99.20;;;;;;5088088;28;20748;-77
2022/03/28 07:48:37;;;;;;;6.37;4.10;;;6.10;99.10;;;;;;5088842;28;20223;-77
2022/03/28 07:51:04;;;;;;;5.73;4.30;;;6.10;98.90;;;;;;5088600;28;20600;-77
2022/03/28 07:53:31;;;;;;;4.07;3.50;;;6.10;98.80;;;;;;5087789;28;20230;-77
2022/03/28 07:55:58;;;;;;;4.63;3.87;;;6.10;98.70;;;;;;5088606;28;20229;-77
2022/03/28 07:58:26;;;;;;;6.03;3.97;;;6.10;98.60;;;;;;5087581;28;20251;-77
2022/03/28 08:00:53;;;;;;;5.30;3.17;;;6.10;98.60;;;;;;5087021;28;20228;-76
2022/03/28 08:03:19;;;;;;;3.47;2.80;;;6.20;98.60;;;;;;5087547;28;20230;-77
2022/03/28 08:05:46;;;;;;;3.93;3.10;;;6.20;98.40;;;;;;5088462;28;20706;-77
2022/03/28 08:08:13;;;;;;;4.20;2.40;;;6.20;98.30;;;;;;5087317;28;20228;-77
2022/03/28 08:10:40;;;;;;;3.97;2.53;;;6.20;98.30;;;;;;5088797;28;20233;-78
2022/03/28 08:13:07;;;;;;;4.07;3.37;;;6.20;98.30;;;;;;5087758;28;20666;-77
2022/03/28 08:15:35;;;;;;;4.30;3.33;;;6.20;98.20;;;;;;5088036;28;20237;-77
2022/03/28 08:18:02;;;;;;;4.73;3.50;;;6.30;98.30;;;;;;5088228;28;20221;-78
2022/03/28 08:20:29;;;;;;;5.23;3.30;;;6.30;98.20;;;;;;5070156;28;20268;-78
2022/03/28 08:22:59;;;;;;;5.40;3.50;;;6.40;98.20;;;;;;5088861;28;20476;-78
2022/03/28 08:25:25;;;;;;;4.97;3.57;;;6.50;98.20;;;;;;5088477;28;20230;-78
2022/03/28 08:27:52;;;;;;;4.30;3.50;;;6.50;98.10;;;;;;5070414;28;20236;-78
2022/03/28 08:30:19;;;;;;;5.47;3.50;;;6.60;98.00;;;;;;5069611;28;20234;-78
2022/03/28 08:32:47;;;;;;;3.17;2.77;;;6.60;97.90;;;;;;5070392;28;20581;-78
2022/03/28 08:35:14;;;;;;;3.67;2.90;;;6.70;98.00;;;;;;5088368;28;20227;-78
2022/03/28 08:37:41;;;;;;;5.47;3.57;;;6.80;98.10;;;;;;5088570;28;20239;-77
2022/03/28 08:40:08;;;;;;;6.33;4.27;;;6.90;98.00;;;;;;5087453;28;20316;-77
2022/03/28 08:42:35;;;;;;;4.33;3.20;;;7.00;98.00;;;;;;5089527;28;20244;-80
2022/03/28 08:45:03;;;;;;;5.30;3.53;;;7.10;97.90;;;;;;5072882;28;20307;-80
2022/03/28 08:47:30;;;;;;;4.23;3.10;;;7.20;97.70;;;;;;5091392;28;20251;-80
2022/03/28 08:49:59;;;;;;;4.80;3.20;;;7.30;97.50;;;;;;5091694;28;20305;-80
2022/03/28 08:52:25;;;;;;;4.67;3.10;;;7.40;97.40;;;;;;5091404;28;20222;-80
2022/03/28 08:54:53;;;;;;;4.60;3.30;;;7.50;97.30;;;;;;5091487;28;20318;-80
2022/03/28 08:57:19;;;;;;;5.03;3.23;;;7.60;97.20;;;;;;5072858;28;20694;-81
2022/03/28 08:59:46;;;;;;;4.93;3.50;;;7.70;97.00;;;;;;5090986;28;20233;-80
2022/03/28 09:02:38;;;;;;;3.57;3.03;;;7.70;96.90;;;;;;5071046;28;20235;-80
2022/03/28 09:05:07;;;;;;;6.37;3.77;;;7.70;96.80;;;;;;5069756;28;20701;-80
2022/03/28 09:07:34;;;;;;;5.60;3.97;;;7.70;96.90;;;;;;5090890;28;20236;-80
2022/03/28 09:10:03;;;;;;;5.40;4.10;;;7.80;96.90;;;;;;5073020;28;20360;-80
2022/03/28 09:12:30;;;;;;;5.10;4.60;;;7.80;96.90;;;;;;5089686;28;20236;-80
2022/03/28 09:15:03;;;;;;;7.07;4.70;;;7.80;96.70;;;;;;5087569;28;20378;-80
2022/03/28 09:17:30;;;;;;;5.67;4.27;;;7.70;96.70;;;;;;5078540;28;20283;-81
2022/03/28 09:19:59;;;;;;;5.03;4.00;;;7.70;96.80;;;;;;5090387;28;20607;-80
2022/03/28 09:22:29;;;;;;;5.00;4.47;;;7.70;97.00;;;;;;5090868;28;20308;-80
2022/03/28 09:24:58;;;;;;;5.10;4.30;;;7.70;97.00;;;;;;5090908;28;20234;-80
2022/03/28 09:27:26;;;;;;;6.60;3.97;;;7.70;96.90;;;;;;5076817;28;20236;-80
2022/03/28 09:29:59;;;;;;;3.93;3.53;;;7.80;96.90;;;;;;5090905;28;20233;-80
2022/03/28 09:32:27;;;;;;;4.83;3.77;;;7.90;96.80;;;;;;5086211;28;20256;-80
2022/03/28 09:35:12;;;;;;;7.07;3.43;;;8.00;96.60;;;;;;5090396;28;20225;-81
2022/03/28 09:37:57;;;;;;;5.50;3.40;;;8.10;96.40;;;;;;5090760;28;20278;-79
2022/03/28 09:40:30;;;;;;;3.23;2.90;;;8.20;96.10;;;;;;5089692;28;20229;-80
2022/03/28 09:42:58;;;;;;;4.67;3.00;;;8.30;96.00;;;;;;5088417;28;20225;-80
2022/03/28 09:45:27;;;;;;;4.17;3.20;;;8.40;95.90;;;;;;5091106;28;20220;-80
2022/03/28 09:48:00;;;;;;;3.87;3.30;;;8.40;95.80;;;;;;5090649;28;20234;-80
2022/03/28 09:50:32;;;;;;;3.80;3.43;;;8.40;95.60;;;;;;5087263;28;20307;-80
2022/03/28 09:53:12;;;;;;;5.47;3.53;;;8.40;95.90;;;;;;5082936;28;20605;-80
2022/03/28 09:55:53;;;;;;;3.37;2.60;;;8.40;95.40;;;;;;5088477;28;20233;-81
2022/03/28 09:58:37;;;;;;;3.90;2.90;;;8.50;95.50;;;;;;5089782;28;20221;-80
2022/03/28 10:01:07;;;;;;;4.10;2.90;;;8.70;95.70;;;;;;5086077;28;20340;-80
2022/03/28 10:03:35;;;;;;;3.80;3.00;;;8.80;95.30;;;;;;5090404;28;20233;-80
2022/03/28 10:06:04;;;;;;;4.03;3.23;;;9.00;95.20;;;;;;5090581;28;20225;-80
2022/03/28 10:08:33;;;;;;;6.07;4.07;;;9.10;94.90;;;;;;5090685;28;20321;-80
2022/03/28 10:11:00;;;;;;;5.83;4.30;;;9.20;95.00;;;;;;5089898;28;20226;-80
2022/03/28 10:13:29;;;;;;;4.90;3.67;;;9.30;95.00;;;;;;5089397;28;20218;-80
2022/03/28 10:15:56;;;;;;;4.17;3.77;;;9.50;94.80;;;;;;5090177;28;20226;-80
2022/03/28 10:18:23;;;;;;;4.43;3.83;;;9.60;94.70;;;;;;5089411;28;20223;-80
2022/03/28 10:20:54;;;;;;;5.30;3.80;;;9.70;94.40;;;;;;5090777;28;20227;-80
2022/03/28 10:23:26;;;;;;;5.60;3.83;;;9.80;94.30;;;;;;5090396;28;20247;-80
2022/03/28 10:25:56;;;;;;;5.27;4.07;;;10.00;94.20;;;;;;5094512;28;20281;-80
2022/03/28 10:28:23;;;;;;;5.77;5.07;;;10.20;93.90;;;;;;5093928;28;20264;-80
2022/03/28 10:31:07;;;;;;;4.40;3.90;;;10.30;93.90;;;;;;5094260;28;20231;-80
2022/03/28 10:33:34;;;;;;;5.53;4.53;;;10.50;93.40;;;;;;5076597;28;20235;-80
2022/03/28 10:36:05;;;;;;;5.43;4.30;;;10.60;93.50;;;;;;5093490;28;20222;-80
2022/03/28 10:38:32;;;;;;;5.40;3.33;;;10.70;92.90;;;;;;5094050;28;20224;-80
2022/03/28 10:41:02;;;;;;;5.33;3.30;;;10.80;92.90;;;;;;5091067;28;20219;-80
2022/03/28 10:43:31;;;;;;;4.30;3.50;;;10.80;92.50;;;;;;5093478;28;20243;-80
2022/03/28 10:46:00;;;;;;;6.23;4.40;;;10.90;92.40;;;;;;5092975;28;20245;-80
2022/03/28 10:48:38;;;;;;;6.30;4.33;;;10.90;92.10;;;;;;5075440;28;20218;-80
2022/03/28 10:51:07;;;;;;;4.23;3.40;;;11.00;92.10;;;;;;5093862;28;20218;-80
2022/03/28 10:53:40;;;;;;;4.80;3.77;;;11.20;92.60;;;;;;5093247;28;20229;-81
2022/03/28 10:56:13;;;;;;;7.47;3.13;;;11.40;92.60;;;;;;5093562;28;20811;-80
2022/03/28 10:58:42;;;;;;;4.73;3.50;;;11.70;92.20;;;;;;5093273;28;20245;-80
2022/03/28 11:01:22;;;;;;;4.47;3.40;;;12.10;92.30;;;;;;5090729;28;20779;-80
2022/03/28 11:03:53;;;;;;;7.57;3.83;;;12.30;91.30;;;;;;5092480;28;20222;-80
2022/03/28 11:06:41;;;;;;;4.83;3.77;;;12.60;90.20;;;;;;5086919;28;20236;-80
2022/03/28 11:09:08;;;;;;;6.13;4.20;;;12.80;90.60;;;;;;5092608;28;20251;-80
2022/03/28 11:11:36;;;;;;;6.63;4.43;;;13.00;90.30;;;;;;5092240;28;20228;-80
2022/03/28 11:14:04;;;;;;;5.17;4.33;;;13.10;90.30;;;;;;5073955;28;20245;-81
2022/03/28 11:16:43;;;;;;;6.60;4.50;;;13.30;89.30;;;;;;5092198;28;20228;-81
2022/03/28 11:19:25;;;;;;;6.07;4.57;;;13.50;88.30;;;;;;5063640;28;20223;-80
2022/03/28 11:22:00;;;;;;;5.20;4.30;;;13.70;87.70;;;;;;5092515;28;20229;-80
2022/03/28 11:24:54;;;;;;;4.40;3.93;;;13.90;87.50;;;;;;5091868;28;20671;-80
2022/03/28 11:27:24;;;;;;;6.23;4.50;;;14.00;86.90;;;;;;5080349;28;20225;-80
2022/03/28 11:29:59;;;;;;;4.77;3.80;;;14.20;87.60;;;;;;5077541;28;20240;-80
2022/03/28 11:32:31;;;;;;;5.03;4.43;;;14.40;87.30;;;;;;5069359;28;20402;-81
2022/03/28 11:34:59;;;;;;;5.83;4.73;;;14.50;85.80;;;;;;5092574;28;20233;-80
2022/03/28 11:37:27;;;;;;;6.83;4.70;;;14.70;85.50;;;;;;5092347;28;20283;-81
2022/03/28 11:39:56;;;;;;;5.13;4.63;;;14.80;84.60;;;;;;5092681;28;20228;-80
2022/03/28 11:42:26;;;;;;;5.33;4.30;;;15.00;84.90;;;;;;5092558;28;20846;-81
2022/03/28 11:44:54;;;;;;;6.10;5.10;;;15.20;84.30;;;;;;5092211;28;20233;-80
2022/03/28 11:47:21;;;;;;;6.63;5.10;;;15.30;83.00;;;;;;5057470;28;20254;-80
2022/03/28 11:49:55;;;;;;;6.67;5.50;;;15.40;82.80;;;;;;5092449;28;20239;-80
2022/03/28 11:52:23;;;;;;;6.70;5.83;;;15.50;81.40;;;;;;5092969;28;20278;-80
2022/03/28 11:54:50;;;;;;;6.13;5.50;;;15.50;81.20;;;;;;5075901;28;20247;-80
2022/03/28 12:00:17;;;;;;;6.20;5.60;;;15.70;80.50;;;;;;5078489;28;20226;-81
2022/03/28 12:02:48;;;;;;;5.47;4.90;;;15.90;81.10;;;;;;5092636;28;20284;-80
2022/03/28 12:05:25;;;;;;;5.33;4.33;;;16.00;79.20;;;;;;5092547;28;20222;-80
2022/03/28 12:07:52;;;;;;;4.63;3.80;;;16.20;79.60;;;;;;5092951;28;20225;-81
2022/03/28 12:10:19;;;;;;;6.13;4.30;;;16.50;80.00;;;;;;5092642;28;20218;-81
2022/03/28 12:12:47;;;;;;;3.73;3.27;;;16.70;80.10;;;;;;5092045;28;20762;-80
2022/03/28 12:15:14;;;;;;;4.47;3.30;;;16.80;78.30;;;;;;5092192;28;20226;-80
2022/03/28 12:17:40;;;;;;;3.93;3.33;;;17.00;77.60;;;;;;5092821;28;20234;-80
2022/03/28 12:20:08;;;;;;;4.37;3.57;;;17.00;76.60;;;;;;5093305;28;20233;-80
2022/03/28 12:22:44;;;;;;;6.30;3.77;;;16.80;75.80;;;;;;5092689;28;20229;-80
2022/03/28 12:25:23;;;;;;;4.47;3.30;;;16.70;74.00;;;;;;5085534;28;20226;-81
2022/03/28 12:27:54;;;;;;;5.40;3.90;;;16.50;75.10;;;;;;5092525;28;20231;-81
2022/03/28 12:30:24;;;;;;;4.93;3.77;;;16.30;75.70;;;;;;5073863;28;20222;-80
2022/03/28 12:32:52;;;;;;;7.30;4.10;;;16.20;74.40;;;;;;5092155;28;20233;-81
2022/03/28 12:35:21;;;;;;;6.40;4.20;;;16.00;75.30;;;;;;5091424;28;20222;-81
2022/03/28 12:37:57;;;;;;;6.93;4.50;;;15.90;75.20;;;;;;5091857;28;20326;-80
2022/03/28 12:40:28;;;;;;;6.83;4.10;;;15.70;75.20;;;;;;5090957;28;20847;-81
2022/03/28 12:42:56;;;;;;;6.97;4.17;;;15.60;76.00;;;;;;5091741;28;20232;-80
2022/03/28 12:45:27;;;;;;;5.70;4.60;;;15.50;76.40;;;;;;5090678;28;20230;-80
2022/03/28 12:47:59;;;;;;;7.07;4.60;;;15.50;76.10;;;;;;5090705;28;20230;-80
2022/03/28 12:50:26;;;;;;;6.80;4.57;;;15.50;76.40;;;;;;5090643;28;20226;-80
2022/03/28 12:53:13;;;;;;;5.87;5.00;;;15.40;75.90;;;;;;5091223;28;20228;-80
2022/03/28 12:55:43;;;;;;;5.90;4.03;;;15.30;75.90;;;;;;5089142;28;20232;-81
2022/03/28 12:58:12;;;;;;;7.00;5.40;;;15.20;76.00;;;;;;5083314;28;20227;-81
2022/03/28 13:00:40;;;;;;;6.27;4.80;;;15.10;76.00;;;;;;5073507;28;20767;-80